createdAt,value
2019-05-22T00:02:29.622Z,11.50
2019-05-22T00:06:42.172Z,11.40
2019-05-22T00:10:53.947Z,11.40
2019-05-22T00:15:03.689Z,11.50
2019-05-22T00:19:13.887Z,11.50
2019-05-22T00:23:23.367Z,11.50
2019-05-22T00:27:32.455Z,11.40
2019-05-22T00:31:41.427Z,11.40
2019-05-22T00:35:51.087Z,11.50
2019-05-22T00:40:00.507Z,11.50
2019-05-22T00:44:12.955Z,11.50
2019-05-22T00:48:25.389Z,11.40
2019-05-22T00:52:46.301Z,11.40
2019-05-22T00:57:13.703Z,11.40
2019-05-22T01:01:39.898Z,11.40
2019-05-22T01:05:49.313Z,11.40
2019-05-22T01:09:59.238Z,11.30
2019-05-22T01:14:09.250Z,11.40
2019-05-22T01:18:18.747Z,11.40
2019-05-22T01:22:28.606Z,11.30
2019-05-22T01:26:39.123Z,11.20
2019-05-22T01:31:05.763Z,11.20
2019-05-22T01:35:16.365Z,11.20
2019-05-22T01:39:44.734Z,11.10
2019-05-22T01:43:55.585Z,11.00
2019-05-22T01:48:10.986Z,11.00
2019-05-22T01:52:21.305Z,10.90
2019-05-22T01:56:31.563Z,10.90
2019-05-22T02:00:41.966Z,11.00
2019-05-22T02:04:51.339Z,11.00
2019-05-22T02:09:19.470Z,10.90
2019-05-22T02:13:38.156Z,10.90
2019-05-22T02:17:48.533Z,10.80
2019-05-22T02:21:59.233Z,10.80
2019-05-22T02:26:10.362Z,10.70
2019-05-22T02:30:22.619Z,10.70
2019-05-22T02:34:31.603Z,10.80
2019-05-22T02:38:41.774Z,10.80
2019-05-22T02:42:52.148Z,10.90
2019-05-22T02:47:18.172Z,10.80
2019-05-22T02:51:14.439Z,10.80
2019-05-22T02:55:23.534Z,10.80
2019-05-22T02:59:32.590Z,10.80
2019-05-22T03:03:43.979Z,10.80
2019-05-22T03:07:53.620Z,10.80
2019-05-22T03:12:10.955Z,10.80
2019-05-22T03:16:20.170Z,10.70
2019-05-22T03:20:32.069Z,10.70
2019-05-22T03:24:41.150Z,10.60
2019-05-22T03:28:50.110Z,10.50
2019-05-22T03:33:01.054Z,10.50
2019-05-22T03:37:10.440Z,10.40
2019-05-22T03:41:20.793Z,10.40
2019-05-22T03:45:31.132Z,10.30
2019-05-22T03:49:41.486Z,10.30
2019-05-22T03:53:51.257Z,10.20
2019-05-22T03:58:00.322Z,10.10
2019-05-22T04:02:10.393Z,10.10
2019-05-22T04:06:22.779Z,10.00
2019-05-22T04:10:41.003Z,10.00
2019-05-22T04:14:48.439Z,10.00
2019-05-22T04:18:58.090Z,10.00
2019-05-22T04:23:07.136Z,10.10
2019-05-22T04:27:17.619Z,10.20
2019-05-22T04:31:49.051Z,10.10
2019-05-22T04:36:00.314Z,10.10
2019-05-22T04:40:47.405Z,10.10
2019-05-22T04:45:12.156Z,10.20
2019-05-22T04:49:21.103Z,10.30
2019-05-22T04:53:30.179Z,10.40
2019-05-22T04:57:39.178Z,10.60
2019-05-22T05:01:48.132Z,10.60
2019-05-22T05:05:58.215Z,10.60
2019-05-22T05:10:07.889Z,10.70
2019-05-22T05:14:16.847Z,10.70
2019-05-22T05:18:26.532Z,10.80
2019-05-22T05:22:43.683Z,10.80
2019-05-22T05:26:53.738Z,10.90
2019-05-22T05:31:02.929Z,10.90
2019-05-22T05:35:12.700Z,11.00
2019-05-22T05:40:08.131Z,11.00
2019-05-22T05:44:17.071Z,10.90
2019-05-22T05:48:27.993Z,10.90
2019-05-22T05:52:37.966Z,11.00
2019-05-22T05:56:51.008Z,11.10
2019-05-22T06:01:12.920Z,11.10
2019-05-22T06:05:23.356Z,11.30
2019-05-22T06:09:32.435Z,11.50
2019-05-22T06:13:41.361Z,11.70
2019-05-22T06:18:38.365Z,11.80
2019-05-22T06:23:32.531Z,11.80
2019-05-22T06:27:55.181Z,11.80
2019-05-22T06:33:01.374Z,12.00
2019-05-22T06:37:16.806Z,12.10
2019-05-22T06:41:31.495Z,12.20
2019-05-22T06:45:40.370Z,12.40
2019-05-22T06:49:52.810Z,12.50
2019-05-22T06:54:02.032Z,12.40
2019-05-22T06:58:11.305Z,12.60
2019-05-22T07:02:21.168Z,12.80
2019-05-22T07:06:30.158Z,13.10
2019-05-22T07:10:39.738Z,13.30
2019-05-22T07:15:20.617Z,13.40
2019-05-22T07:19:30.099Z,13.40
2019-05-22T07:23:39.259Z,13.70
2019-05-22T07:27:48.823Z,14.00
2019-05-22T07:32:02.351Z,14.20
2019-05-22T07:36:16.655Z,14.20
2019-05-22T07:40:23.770Z,14.20
2019-05-22T07:44:33.188Z,14.10
2019-05-22T07:48:42.528Z,14.00
2019-05-22T07:52:52.330Z,14.70
2019-05-22T07:57:01.611Z,14.90
2019-05-22T08:01:10.613Z,14.60
2019-05-22T08:05:22.851Z,14.40
2019-05-22T08:09:33.013Z,14.70
2019-05-22T08:13:43.396Z,15.10
2019-05-22T08:17:52.974Z,15.50
2019-05-22T08:22:07.304Z,15.80
2019-05-22T08:26:14.667Z,15.70
2019-05-22T08:30:23.669Z,15.60
2019-05-22T08:34:33.515Z,15.30
2019-05-22T08:38:44.862Z,15.30
2019-05-22T08:42:54.103Z,15.70
2019-05-22T08:47:03.583Z,15.70
2019-05-22T08:51:13.505Z,16.10
2019-05-22T08:55:22.558Z,16.90
2019-05-22T08:59:31.989Z,17.40
2019-05-22T09:03:41.352Z,17.40
2019-05-22T09:07:50.258Z,17.00
2019-05-22T09:11:59.160Z,17.10
2019-05-22T09:16:08.928Z,17.70
2019-05-22T09:20:20.508Z,17.80
2019-05-22T09:24:30.648Z,17.80
2019-05-22T09:28:39.629Z,17.50
2019-05-22T09:32:49.190Z,17.90
2019-05-22T09:36:58.138Z,18.00
2019-05-22T09:41:07.635Z,17.70
2019-05-22T09:45:17.136Z,17.60
2019-05-22T09:49:26.518Z,17.90
2019-05-22T09:53:36.195Z,18.20
2019-05-22T09:57:45.271Z,18.30
2019-05-22T10:01:54.586Z,18.80
2019-05-22T10:06:04.683Z,18.70
2019-05-22T10:10:15.120Z,18.30
2019-05-22T10:14:24.483Z,18.00
2019-05-22T10:18:34.592Z,18.10
2019-05-22T10:22:43.571Z,18.10
2019-05-22T10:26:52.946Z,18.20
2019-05-22T10:31:02.879Z,18.70
2019-05-22T10:35:14.188Z,19.00
2019-05-22T10:39:24.825Z,19.50
2019-05-22T10:43:34.308Z,20.10
2019-05-22T10:47:43.974Z,19.90
2019-05-22T10:51:53.387Z,19.80
2019-05-22T10:56:02.876Z,19.70
2019-05-22T11:00:12.930Z,19.70
2019-05-22T11:04:23.423Z,19.60
2019-05-22T11:08:34.476Z,19.70
2019-05-22T11:12:43.475Z,20.00
2019-05-22T11:16:52.758Z,20.20
2019-05-22T11:21:02.669Z,20.50
2019-05-22T11:25:14.714Z,20.50
2019-05-22T11:29:23.672Z,20.70
2019-05-22T11:33:34.336Z,20.90
2019-05-22T11:37:44.115Z,20.70
2019-05-22T11:41:53.093Z,21.10
2019-05-22T11:46:02.171Z,21.30
2019-05-22T11:50:13.011Z,21.60
2019-05-22T11:54:22.473Z,21.40
2019-05-22T11:58:31.476Z,21.20
2019-05-22T12:02:40.837Z,21.50
2019-05-22T12:06:53.558Z,21.90
2019-05-22T12:11:01.815Z,22.40
2019-05-22T12:15:11.625Z,22.60
2019-05-22T12:19:20.652Z,22.90
2019-05-22T12:23:30.166Z,23.20
2019-05-22T12:27:39.144Z,23.40
2019-05-22T12:31:49.181Z,23.50
2019-05-22T12:35:58.533Z,23.30
2019-05-22T12:40:09.754Z,23.20
2019-05-22T12:44:19.631Z,22.30
2019-05-22T12:48:29.076Z,22.40
2019-05-22T12:52:38.710Z,22.80
2019-05-22T12:56:48.290Z,22.40
2019-05-22T13:00:58.331Z,22.00
2019-05-22T13:05:08.331Z,22.30
2019-05-22T13:09:17.577Z,22.00
2019-05-22T13:13:26.830Z,22.00
2019-05-22T13:17:36.775Z,23.10
2019-05-22T13:21:48.023Z,23.70
2019-05-22T13:25:58.053Z,23.30
2019-05-22T13:30:08.867Z,23.40
2019-05-22T13:34:18.720Z,22.90
2019-05-22T13:38:28.162Z,23.20
2019-05-22T13:42:37.306Z,23.80
2019-05-22T13:46:46.567Z,23.40
2019-05-22T13:50:57.896Z,22.90
2019-05-22T13:55:09.143Z,23.40
2019-05-22T13:59:18.777Z,23.80
2019-05-22T14:03:28.290Z,23.20
2019-05-22T14:07:37.383Z,22.90
2019-05-22T14:11:46.638Z,22.80
2019-05-22T14:15:57.333Z,23.00
2019-05-22T14:20:08.008Z,22.50
2019-05-22T14:24:16.967Z,21.80
2019-05-22T14:28:27.322Z,21.50
2019-05-22T14:32:37.759Z,21.80
2019-05-22T14:36:47.500Z,21.90
2019-05-22T14:40:57.174Z,21.80
2019-05-22T14:45:06.759Z,21.40
2019-05-22T14:49:16.043Z,21.00
2019-05-22T14:53:26.234Z,20.90
2019-05-22T14:57:35.542Z,20.90
2019-05-22T15:01:44.436Z,20.80
2019-05-22T15:05:54.199Z,20.70
2019-05-22T15:10:03.190Z,20.70
2019-05-22T15:14:12.075Z,20.80
2019-05-22T15:18:21.032Z,20.90
2019-05-22T15:22:29.979Z,20.90
2019-05-22T15:26:39.153Z,20.90
2019-05-22T15:30:48.342Z,20.80
2019-05-22T15:34:57.334Z,21.00
2019-05-22T15:39:08.659Z,21.10
2019-05-22T15:43:17.839Z,21.50
2019-05-22T15:47:27.402Z,21.60
2019-05-22T15:51:37.202Z,22.00
2019-05-22T15:55:48.401Z,22.30
2019-05-22T15:59:58.079Z,22.40
2019-05-22T16:04:10.850Z,22.60
2019-05-22T16:08:19.805Z,22.30
2019-05-22T16:12:29.472Z,22.30
2019-05-22T16:16:40.105Z,22.40
2019-05-22T16:20:49.686Z,22.30
2019-05-22T16:25:00.590Z,22.50
2019-05-22T16:29:09.545Z,22.90
2019-05-22T16:33:19.131Z,22.80
2019-05-22T16:37:28.910Z,22.50
2019-05-22T16:41:38.832Z,22.40
2019-05-22T16:45:49.007Z,22.50
2019-05-22T16:50:00.131Z,22.70
2019-05-22T16:54:09.448Z,22.90
2019-05-22T16:58:19.885Z,22.70
2019-05-22T17:02:30.011Z,22.60
2019-05-22T17:06:40.475Z,23.00
2019-05-22T17:10:51.277Z,23.90
2019-05-22T17:15:01.391Z,25.10
2019-05-22T17:19:25.857Z,25.90
2019-05-22T17:23:21.977Z,25.40
2019-05-22T17:27:31.836Z,25.00
2019-05-22T17:31:41.129Z,25.00
2019-05-22T17:35:51.442Z,24.40
2019-05-22T17:40:00.706Z,24.60
2019-05-22T17:44:10.230Z,25.20
2019-05-22T17:48:20.183Z,25.70
2019-05-22T17:52:29.231Z,24.70
2019-05-22T17:56:38.522Z,23.10
2019-05-22T18:00:48.960Z,21.80
2019-05-22T18:04:58.072Z,20.80
2019-05-22T18:09:08.827Z,20.30
2019-05-22T18:13:19.158Z,20.20
2019-05-22T18:17:28.424Z,20.00
2019-05-22T18:21:38.392Z,19.80
2019-05-22T18:25:47.363Z,19.50
2019-05-22T18:29:56.320Z,19.20
2019-05-22T18:34:05.555Z,19.00
2019-05-22T18:38:14.453Z,18.60
2019-05-22T18:42:24.018Z,18.20
2019-05-22T18:46:32.899Z,17.70
2019-05-22T18:50:42.238Z,17.30
2019-05-22T18:54:51.117Z,16.90
2019-05-22T18:59:00.259Z,16.50
2019-05-22T19:03:09.138Z,16.20
2019-05-22T19:07:18.282Z,15.80
2019-05-22T19:11:27.306Z,15.40
2019-05-22T19:15:36.540Z,15.10
2019-05-22T19:19:45.423Z,14.90
2019-05-22T19:23:54.378Z,14.60
2019-05-22T19:28:04.043Z,14.30
2019-05-22T19:32:12.999Z,14.00
2019-05-22T19:36:21.923Z,13.70
2019-05-22T19:40:30.810Z,13.40
2019-05-22T19:44:39.770Z,13.20
2019-05-22T19:48:49.171Z,13.10
2019-05-22T19:53:15.885Z,12.90
2019-05-22T19:57:09.912Z,12.70
2019-05-22T20:01:18.798Z,12.50
2019-05-22T20:05:27.861Z,12.40
2019-05-22T20:09:38.543Z,12.30
2019-05-22T20:13:48.050Z,12.20
2019-05-22T20:17:57.910Z,12.10
2019-05-22T20:22:08.302Z,12.00
2019-05-22T20:26:18.232Z,11.90
2019-05-22T20:30:27.754Z,11.80
2019-05-22T20:34:37.154Z,11.80
2019-05-22T20:38:46.182Z,11.70
2019-05-22T20:42:55.719Z,11.70
2019-05-22T20:47:06.452Z,11.70
2019-05-22T20:51:17.662Z,11.60
2019-05-22T20:55:26.746Z,11.60
2019-05-22T20:59:35.997Z,11.40
2019-05-22T21:03:45.047Z,11.30
2019-05-22T21:07:56.943Z,11.20
2019-05-22T21:12:08.699Z,11.10
2019-05-22T21:16:18.493Z,11.00
2019-05-22T21:20:30.302Z,10.90
2019-05-22T21:24:39.870Z,10.90
2019-05-22T21:28:49.512Z,10.80
2019-05-22T21:32:59.066Z,10.80
2019-05-22T21:37:08.105Z,10.80
2019-05-22T21:41:19.506Z,10.70
2019-05-22T21:45:28.822Z,10.70
2019-05-22T21:49:38.917Z,10.60
2019-05-22T21:53:48.415Z,10.50
2019-05-22T21:57:57.387Z,10.50
2019-05-22T22:02:18.501Z,10.40
2019-05-22T22:06:28.026Z,10.30
2019-05-22T22:10:37.275Z,10.30
2019-05-22T22:14:47.891Z,10.20
2019-05-22T22:18:57.428Z,10.20
2019-05-22T22:23:06.427Z,10.20
2019-05-22T22:27:16.416Z,10.20
2019-05-22T22:31:28.086Z,10.10
2019-05-22T22:35:37.436Z,10.10
2019-05-22T22:39:52.209Z,10.00
2019-05-22T22:44:03.366Z,9.90
2019-05-22T22:48:16.397Z,9.80
2019-05-22T22:52:26.034Z,9.80
2019-05-22T22:56:35.150Z,9.70
2019-05-22T23:00:45.872Z,9.70
2019-05-22T23:04:55.622Z,9.60
2019-05-22T23:19:31.918Z,9.10
2019-05-22T23:23:40.754Z,9.00
2019-05-22T23:27:50.757Z,9.00
2019-05-22T23:32:00.603Z,8.90
2019-05-22T23:36:11.156Z,8.90
2019-05-22T23:40:25.513Z,8.80
2019-05-22T23:44:37.400Z,8.70
2019-05-22T23:48:47.202Z,8.70
2019-05-22T23:52:56.794Z,8.80
2019-05-22T23:57:06.137Z,8.80
